KCDR/CDR METAR and TAF weather

Enter ICAO airport designator
Station Type Date Time Source
KCDR METAR 2021/04/17 01:30 UTC NOAA

KCDR 170130Z AUTO 29004KT 10SM BKN021 BKN027 OVC050 02/M01 A3022 RMK AO2 T00221006


Station Type Date Time Source
KCDR Decoded METAR 2021/04/17 01:30 UTC NOAA

CHADRON MUNICIPAL AIRPORT, NE, United States (KCDR) 42-50N 103-06W 1010M
Apr 16, 2021 - 09:30 PM EDT / 2021.04.17 0130 UTC
Wind: from the WNW (290 degrees) at 5 MPH (4 KT):0
Visibility: 10 mile(s):0
Sky conditions: overcast
Temperature: 36.0 F (2.2 C)
Dew Point: 30.9 F (-0.6 C)
Relative Humidity: 81%
Pressure (altimeter): 30.22 in. Hg (1023 hPa)
ob: KCDR 170130Z AUTO 29004KT 10SM BKN021 BKN027 OVC050 02/M01 A3022 RMK AO2 T00221006
cycle: 1

Station Type Date Time Source
KCDR TAF 2021/04/16 18:22 UTC NOAA

TAF KCDR 161720Z 1618/1718 33008KT 2SM -SN BR OVC007
FM162000 36006KT 3SM -RASN BR OVC007
FM170700 VRB03KT 4SM BR OVC007
FM170900 31003KT 2SM BR OVC015
FM171400 31007KT 6SM BR OVC025

Example: see airport list